sensor_id;sensor_type;location;lat;lon;timestamp;pressure;altitude;pressure_sealevel;temperature;humidity
66486;BME280;53303;47.476;8.084;2023-04-06T00:01:55;95414.91;;;19.50;31.70
66486;BME280;53303;47.476;8.084;2023-04-06T00:04:21;95422.47;;;19.55;31.57
66486;BME280;53303;47.476;8.084;2023-04-06T00:06:46;95419.69;;;19.55;31.30
66486;BME280;53303;47.476;8.084;2023-04-06T00:09:12;95418.94;;;19.54;31.70
66486;BME280;53303;47.476;8.084;2023-04-06T00:11:37;95423.75;;;19.54;31.57
66486;BME280;53303;47.476;8.084;2023-04-06T00:14:03;95407.38;;;19.50;31.64
66486;BME280;53303;47.476;8.084;2023-04-06T00:16:29;95403.09;;;19.49;31.65
66486;BME280;53303;47.476;8.084;2023-04-06T00:18:57;95415.44;;;19.54;31.74
66486;BME280;53303;47.476;8.084;2023-04-06T00:21:22;95412.66;;;19.54;31.64
66486;BME280;53303;47.476;8.084;2023-04-06T00:23:48;95413.41;;;19.54;31.67
66486;BME280;53303;47.476;8.084;2023-04-06T00:26:13;95407.13;;;19.54;31.70
66486;BME280;53303;47.476;8.084;2023-04-06T00:28:38;95412.66;;;19.54;31.46
66486;BME280;53303;47.476;8.084;2023-04-06T00:31:04;95400.59;;;19.46;31.65
66486;BME280;53303;47.476;8.084;2023-04-06T00:33:29;95392.28;;;19.46;31.61
66486;BME280;53303;47.476;8.084;2023-04-06T00:35:57;95403.09;;;19.55;31.51
66486;BME280;53303;47.476;8.084;2023-04-06T00:38:23;95394.03;;;19.49;31.49
66486;BME280;53303;47.476;8.084;2023-04-06T00:40:50;95396.03;;;19.48;31.47
66486;BME280;53303;47.476;8.084;2023-04-06T00:43:18;95399.31;;;19.52;31.69
66486;BME280;53303;47.476;8.084;2023-04-06T00:45:44;95396.31;;;19.50;31.66
66486;BME280;53303;47.476;8.084;2023-04-06T00:48:09;95401.34;;;19.52;31.64
66486;BME280;53303;47.476;8.084;2023-04-06T00:50:35;95393.03;;;19.52;31.52
66486;BME280;53303;47.476;8.084;2023-04-06T00:53:01;95398.59;;;19.52;31.70
66486;BME280;53303;47.476;8.084;2023-04-06T00:55:27;95392.03;;;19.49;31.40
66486;BME280;53303;47.476;8.084;2023-04-06T00:57:53;95395.81;;;19.52;31.61
66486;BME280;53303;47.476;8.084;2023-04-06T01:00:19;95389.00;;;19.47;31.65
66486;BME280;53303;47.476;8.084;2023-04-06T01:02:47;95390.28;;;19.52;31.52
66486;BME280;53303;47.476;8.084;2023-04-06T01:05:15;95378.69;;;19.42;31.44
66486;BME280;53303;47.476;8.084;2023-04-06T01:07:40;95397.31;;;19.53;31.56
66486;BME280;53303;47.476;8.084;2023-04-06T01:10:06;95387.25;;;19.50;31.40
66486;BME280;53303;47.476;8.084;2023-04-06T01:12:31;95377.44;;;19.49;31.51
66486;BME280;53303;47.476;8.084;2023-04-06T01:14:57;95378.94;;;19.44;31.41
66486;BME280;53303;47.476;8.084;2023-04-06T01:17:24;95349.78;;;19.26;31.55
66486;BME280;53303;47.476;8.084;2023-04-06T01:19:53;95380.47;;;19.51;31.57
66486;BME280;53303;47.476;8.084;2023-04-06T01:22:19;95372.16;;;19.51;31.44
66486;BME280;53303;47.476;8.084;2023-04-06T01:24:45;95382.22;;;19.48;31.56
66486;BME280;53303;47.476;8.084;2023-04-06T01:27:11;95371.66;;;19.47;31.46
66486;BME280;53303;47.476;8.084;2023-04-06T01:29:37;95379.72;;;19.50;31.33
66486;BME280;53303;47.476;8.084;2023-04-06T01:32:02;95371.66;;;19.47;31.42
66486;BME280;53303;47.476;8.084;2023-04-06T01:34:28;95373.91;;;19.48;31.79
66486;BME280;53303;47.476;8.084;2023-04-06T01:36:53;95366.38;;;19.49;31.63
66486;BME280;53303;47.476;8.084;2023-04-06T01:39:19;95369.16;;;19.49;31.53
66486;BME280;53303;47.476;8.084;2023-04-06T01:41:45;95368.38;;;19.48;31.35
66486;BME280;53303;47.476;8.084;2023-04-06T01:44:12;95358.06;;;19.49;31.45
66486;BME280;53303;47.476;8.084;2023-04-06T01:46:38;95363.59;;;19.49;31.56
66486;BME280;53303;47.476;8.084;2023-04-06T01:49:03;95353.03;;;19.47;31.51
66486;BME280;53303;47.476;8.084;2023-04-06T01:51:28;95355.06;;;19.47;31.47
66486;BME280;53303;47.476;8.084;2023-04-06T01:53:55;95345.25;;;19.40;31.37
66486;BME280;53303;47.476;8.084;2023-04-06T01:56:20;95352.28;;;19.47;31.72
66486;BME280;53303;47.476;8.084;2023-04-06T01:58:46;95334.19;;;19.34;31.64
66486;BME280;53303;47.476;8.084;2023-04-06T02:01:14;95338.69;;;19.37;31.31
66486;BME280;53303;47.476;8.084;2023-04-06T02:03:39;95336.69;;;19.38;31.57
66486;BME280;53303;47.476;8.084;2023-04-06T02:06:05;95350.53;;;19.44;31.48
66486;BME280;53303;47.476;8.084;2023-04-06T02:08:33;95356.31;;;19.46;31.51
66486;BME280;53303;47.476;8.084;2023-04-06T02:11:00;95348.00;;;19.46;31.40
66486;BME280;53303;47.476;8.084;2023-04-06T02:13:28;95353.53;;;19.46;31.45
66486;BME280;53303;47.476;8.084;2023-04-06T02:15:54;95351.78;;;19.43;31.48
66486;BME280;53303;47.476;8.084;2023-04-06T02:18:19;95352.03;;;19.45;31.46
66486;BME280;53303;47.476;8.084;2023-04-06T02:20:45;95346.47;;;19.45;31.51
66486;BME280;53303;47.476;8.084;2023-04-06T02:23:12;95349.00;;;19.43;31.15
66486;BME280;53303;47.476;8.084;2023-04-06T02:25:38;95348.50;;;19.44;31.36
66486;BME280;53303;47.476;8.084;2023-04-06T02:28:03;95347.75;;;19.44;31.52
66486;BME280;53303;47.476;8.084;2023-04-06T02:30:29;95351.28;;;19.44;31.33
66486;BME280;53303;47.476;8.084;2023-04-06T02:33:00;95348.50;;;19.44;31.43
66486;BME280;53303;47.476;8.084;2023-04-06T02:35:27;95345.75;;;19.44;31.42
66486;BME280;53303;47.476;8.084;2023-04-06T02:37:53;95333.44;;;19.39;31.31
66486;BME280;53303;47.476;8.084;2023-04-06T02:40:18;95343.47;;;19.43;31.42
66486;BME280;53303;47.476;8.084;2023-04-06T02:42:44;95338.97;;;19.39;31.30
66486;BME280;53303;47.476;8.084;2023-04-06T02:45:10;95338.44;;;19.41;31.51
66486;BME280;53303;47.476;8.084;2023-04-06T02:47:38;95331.66;;;19.36;31.46
66486;BME280;53303;47.476;8.084;2023-04-06T02:50:04;95331.91;;;19.38;31.43
66486;BME280;53303;47.476;8.084;2023-04-06T02:52:31;95336.94;;;19.40;31.30
66486;BME280;53303;47.476;8.084;2023-04-06T02:54:57;95336.44;;;19.42;31.43
66486;BME280;53303;47.476;8.084;2023-04-06T02:57:22;95337.94;;;19.37;31.43
66486;BME280;53303;47.476;8.084;2023-04-06T02:59:48;95340.47;;;19.40;31.34
66486;BME280;53303;47.476;8.084;2023-04-06T03:02:13;95337.69;;;19.40;31.29
66486;BME280;53303;47.476;8.084;2023-04-06T03:04:39;95326.41;;;19.33;31.39
66486;BME280;53303;47.476;8.084;2023-04-06T03:07:07;95315.84;;;19.26;31.25
66486;BME280;53303;47.476;8.084;2023-04-06T03:09:37;95339.72;;;19.40;31.18
66486;BME280;53303;47.476;8.084;2023-04-06T03:12:02;95327.13;;;19.33;31.28
66486;BME280;53303;47.476;8.084;2023-04-06T03:14:28;95334.69;;;19.38;31.31
66486;BME280;53303;47.476;8.084;2023-04-06T03:16:53;95331.16;;;19.38;31.29
66486;BME280;53303;47.476;8.084;2023-04-06T03:19:19;95337.44;;;19.38;31.35
66486;BME280;53303;47.476;8.084;2023-04-06T03:21:44;95325.66;;;19.32;31.21
66486;BME280;53303;47.476;8.084;2023-04-06T03:24:10;95334.69;;;19.33;31.04
66486;BME280;53303;47.476;8.084;2023-04-06T03:26:35;95332.69;;;19.33;31.20
66486;BME280;53303;47.476;8.084;2023-04-06T03:29:00;95329.66;;;19.31;31.24
66486;BME280;53303;47.476;8.084;2023-04-06T03:31:28;95338.44;;;19.35;31.29
66486;BME280;53303;47.476;8.084;2023-04-06T03:33:58;95340.72;;;19.37;31.36
66486;BME280;53303;47.476;8.084;2023-04-06T03:36:24;95349.75;;;19.37;31.29
66486;BME280;53303;47.476;8.084;2023-04-06T03:38:53;95326.91;;;19.31;31.09
66486;BME280;53303;47.476;8.084;2023-04-06T03:41:19;95339.97;;;19.36;31.37
66486;BME280;53303;47.476;8.084;2023-04-06T03:43:45;95342.00;;;19.36;31.25
66486;BME280;53303;47.476;8.084;2023-04-06T03:46:10;95333.94;;;19.32;31.28
66486;BME280;53303;47.476;8.084;2023-04-06T03:48:36;95343.47;;;19.37;31.20
66486;BME280;53303;47.476;8.084;2023-04-06T03:51:04;95346.25;;;19.37;31.32
66486;BME280;53303;47.476;8.084;2023-04-06T03:53:31;95341.72;;;19.34;31.07
66486;BME280;53303;47.476;8.084;2023-04-06T03:55:57;95339.22;;;19.36;31.33
66486;BME280;53303;47.476;8.084;2023-04-06T03:58:22;95342.00;;;19.36;31.31
66486;BME280;53303;47.476;8.084;2023-04-06T04:00:48;95342.75;;;19.36;30.65
66486;BME280;53303;47.476;8.084;2023-04-06T04:03:13;95339.22;;;19.30;30.88
66486;BME280;53303;47.476;8.084;2023-04-06T04:05:38;95322.38;;;19.17;30.81
66486;BME280;53303;47.476;8.084;2023-04-06T04:08:04;95346.75;;;19.30;30.87
66486;BME280;53303;47.476;8.084;2023-04-06T04:10:29;95348.78;;;19.35;30.62
66486;BME280;53303;47.476;8.084;2023-04-06T04:12:55;95348.03;;;19.34;30.64
66486;BME280;53303;47.476;8.084;2023-04-06T04:15:20;95347.25;;;19.34;30.63
66486;BME280;53303;47.476;8.084;2023-04-06T04:17:46;95361.38;;;19.36;30.68
66486;BME280;53303;47.476;8.084;2023-04-06T04:20:14;95359.34;;;19.36;30.66
66486;BME280;53303;47.476;8.084;2023-04-06T04:22:40;95354.56;;;19.31;30.77
66486;BME280;53303;47.476;8.084;2023-04-06T04:25:06;95352.31;;;19.24;30.60
66486;BME280;53303;47.476;8.084;2023-04-06T04:27:31;95361.34;;;19.30;30.82
66486;BME280;53303;47.476;8.084;2023-04-06T04:29:56;95367.41;;;19.34;30.81
66486;BME280;53303;47.476;8.084;2023-04-06T04:32:22;95368.13;;;19.35;30.73
66486;BME280;53303;47.476;8.084;2023-04-06T04:34:47;95361.59;;;19.27;30.94
66486;BME280;53303;47.476;8.084;2023-04-06T04:37:13;95364.63;;;19.29;30.72
66486;BME280;53303;47.476;8.084;2023-04-06T04:39:38;95369.38;;;19.34;30.80
66486;BME280;53303;47.476;8.084;2023-04-06T04:42:04;95367.91;;;19.33;30.82
66486;BME280;53303;47.476;8.084;2023-04-06T04:44:29;95365.88;;;19.28;30.97
66486;BME280;53303;47.476;8.084;2023-04-06T04:46:57;95373.19;;;19.31;31.00
66486;BME280;53303;47.476;8.084;2023-04-06T04:49:22;95376.94;;;19.33;30.96
66486;BME280;53303;47.476;8.084;2023-04-06T04:51:48;95374.19;;;19.33;31.09
66486;BME280;53303;47.476;8.084;2023-04-06T04:54:17;95376.69;;;19.31;31.07
66486;BME280;53303;47.476;8.084;2023-04-06T04:56:46;95372.16;;;19.34;31.02
66486;BME280;53303;47.476;8.084;2023-04-06T04:59:15;95374.19;;;19.33;31.13
66486;BME280;53303;47.476;8.084;2023-04-06T05:01:41;95379.97;;;19.30;31.04
66486;BME280;53303;47.476;8.084;2023-04-06T05:04:06;95386.00;;;19.34;31.09
66486;BME280;53303;47.476;8.084;2023-04-06T05:06:34;95384.00;;;19.34;31.07
66486;BME280;53303;47.476;8.084;2023-04-06T05:09:02;95380.22;;;19.32;31.08
66486;BME280;53303;47.476;8.084;2023-04-06T05:11:27;95386.75;;;19.29;31.03
66486;BME280;53303;47.476;8.084;2023-04-06T05:13:53;95382.72;;;19.30;31.14
66486;BME280;53303;47.476;8.084;2023-04-06T05:16:18;95387.75;;;19.31;31.07
66486;BME280;53303;47.476;8.084;2023-04-06T05:18:44;95388.75;;;19.34;31.15
66486;BME280;53303;47.476;8.084;2023-04-06T05:21:11;95394.81;;;19.32;31.06
66486;BME280;53303;47.476;8.084;2023-04-06T05:23:36;95405.34;;;19.34;31.19
66486;BME280;53303;47.476;8.084;2023-04-06T05:26:01;95399.56;;;19.32;31.00
66486;BME280;53303;47.476;8.084;2023-04-06T05:28:27;95388.75;;;19.28;31.09
66486;BME280;53303;47.476;8.084;2023-04-06T05:30:52;95399.56;;;19.32;31.18
66486;BME280;53303;47.476;8.084;2023-04-06T05:33:18;95405.34;;;19.34;31.30
66486;BME280;53303;47.476;8.084;2023-04-06T05:35:43;95408.13;;;19.34;31.15
66486;BME280;53303;47.476;8.084;2023-04-06T05:38:11;95395.81;;;19.29;31.06
66486;BME280;53303;47.476;8.084;2023-04-06T05:40:40;95398.56;;;19.29;31.14
66486;BME280;53303;47.476;8.084;2023-04-06T05:43:07;95405.59;;;19.30;31.01
66486;BME280;53303;47.476;8.084;2023-04-06T05:45:33;95412.91;;;19.33;31.13
66486;BME280;53303;47.476;8.084;2023-04-06T05:48:00;95407.63;;;19.30;31.12
66486;BME280;53303;47.476;8.084;2023-04-06T05:50:26;95412.16;;;19.33;31.11
66486;BME280;53303;47.476;8.084;2023-04-06T05:52:51;95398.09;;;19.25;30.99
66486;BME280;53303;47.476;8.084;2023-04-06T05:55:22;95407.13;;;19.31;31.22
66486;BME280;53303;47.476;8.084;2023-04-06T05:57:47;95398.56;;;19.29;31.53
66486;BME280;53303;47.476;8.084;2023-04-06T06:00:13;95413.66;;;19.34;31.11
66486;BME280;53303;47.476;8.084;2023-04-06T06:02:41;95404.13;;;19.29;31.22
66486;BME280;53303;47.476;8.084;2023-04-06T06:05:08;95408.38;;;19.30;31.25
66486;BME280;53303;47.476;8.084;2023-04-06T06:07:36;95412.16;;;19.33;31.09
66486;BME280;53303;47.476;8.084;2023-04-06T06:10:02;95406.38;;;19.31;31.27
66486;BME280;53303;47.476;8.084;2023-04-06T06:12:28;95409.41;;;19.27;31.04
66486;BME280;53303;47.476;8.084;2023-04-06T06:14:54;95411.13;;;19.30;31.20
66486;BME280;53303;47.476;8.084;2023-04-06T06:17:21;95420.47;;;19.33;30.99
66486;BME280;53303;47.476;8.084;2023-04-06T06:19:49;95413.41;;;19.26;31.07
66486;BME280;53303;47.476;8.084;2023-04-06T06:22:17;95415.66;;;19.33;31.19
66486;BME280;53303;47.476;8.084;2023-04-06T06:24:42;95414.94;;;19.27;31.03
66486;BME280;53303;47.476;8.084;2023-04-06T06:27:13;95411.63;;;19.23;31.13
66486;BME280;53303;47.476;8.084;2023-04-06T06:29:38;95422.97;;;19.31;31.14
66486;BME280;53303;47.476;8.084;2023-04-06T06:32:04;95424.47;;;19.32;31.09
66486;BME280;53303;47.476;8.084;2023-04-06T06:34:32;95427.25;;;19.32;31.13
66486;BME280;53303;47.476;8.084;2023-04-06T06:36:57;95432.03;;;19.31;31.19
66486;BME280;53303;47.476;8.084;2023-04-06T06:39:26;95420.97;;;19.26;31.20
66486;BME280;53303;47.476;8.084;2023-04-06T06:41:51;95429.00;;;19.29;31.04
66486;BME280;53303;47.476;8.084;2023-04-06T06:44:17;95421.72;;;19.26;31.29
66486;BME280;53303;47.476;8.084;2023-04-06T06:46:42;95430.00;;;19.32;31.16
66486;BME280;53303;47.476;8.084;2023-04-06T06:49:10;95425.75;;;19.25;31.07
66486;BME280;53303;47.476;8.084;2023-04-06T06:51:40;95425.50;;;19.29;31.15
66486;BME280;53303;47.476;8.084;2023-04-06T06:54:05;95430.78;;;19.32;31.11
66486;BME280;53303;47.476;8.084;2023-04-06T06:56:31;95421.72;;;19.26;31.17
66486;BME280;53303;47.476;8.084;2023-04-06T06:58:56;95432.78;;;19.32;31.24
66486;BME280;53303;47.476;8.084;2023-04-06T07:01:22;95427.50;;;19.28;31.16
66486;BME280;53303;47.476;8.084;2023-04-06T07:03:47;95427.25;;;19.26;31.17
66486;BME280;53303;47.476;8.084;2023-04-06T07:06:15;95414.41;;;19.23;31.17
66486;BME280;53303;47.476;8.084;2023-04-06T07:08:43;95427.50;;;19.28;31.25
66486;BME280;53303;47.476;8.084;2023-04-06T07:11:08;95430.50;;;19.30;31.18
66486;BME280;53303;47.476;8.084;2023-04-06T07:13:33;95437.56;;;19.31;31.13
66486;BME280;53303;47.476;8.084;2023-04-06T07:15:59;95432.53;;;19.30;31.22
66486;BME280;53303;47.476;8.084;2023-04-06T07:18:24;95439.09;;;19.32;30.79
66486;BME280;53303;47.476;8.084;2023-04-06T07:20:52;95428.00;;;19.27;31.14
66486;BME280;53303;47.476;8.084;2023-04-06T07:23:17;95426.50;;;19.26;31.15
66486;BME280;53303;47.476;8.084;2023-04-06T07:25:43;95426.75;;;19.28;31.15
66486;BME280;53303;47.476;8.084;2023-04-06T07:28:08;95431.03;;;19.29;31.20
66486;BME280;53303;47.476;8.084;2023-04-06T07:30:34;95412.66;;;19.20;31.20
66486;BME280;53303;47.476;8.084;2023-04-06T07:32:59;95425.22;;;19.27;31.20
66486;BME280;53303;47.476;8.084;2023-04-06T07:35:26;95441.84;;;19.32;31.13
66486;BME280;53303;47.476;8.084;2023-04-06T07:37:57;95440.31;;;19.31;31.15
66486;BME280;53303;47.476;8.084;2023-04-06T07:40:23;95430.00;;;19.32;31.41
66486;BME280;53303;47.476;8.084;2023-04-06T07:42:51;95437.56;;;19.31;31.01
66486;BME280;53303;47.476;8.084;2023-04-06T07:45:16;95444.09;;;19.28;31.15
66486;BME280;53303;47.476;8.084;2023-04-06T07:47:42;95441.84;;;19.32;31.45
66486;BME280;53303;47.476;8.084;2023-04-06T07:50:08;95437.06;;;19.33;31.28
66486;BME280;53303;47.476;8.084;2023-04-06T07:52:36;95439.09;;;19.32;31.26
66486;BME280;53303;47.476;8.084;2023-04-06T07:55:04;95437.06;;;19.33;31.17
66486;BME280;53303;47.476;8.084;2023-04-06T07:57:32;95425.50;;;19.29;31.09
66486;BME280;53303;47.476;8.084;2023-04-06T08:00:02;95437.81;;;19.33;31.15
66486;BME280;53303;47.476;8.084;2023-04-06T08:02:29;95431.53;;;19.33;31.24
66486;BME280;53303;47.476;8.084;2023-04-06T08:04:54;95426.00;;;19.33;31.14
66486;BME280;53303;47.476;8.084;2023-04-06T08:07:20;95430.25;;;19.34;31.26
66486;BME280;53303;47.476;8.084;2023-04-06T08:09:45;95416.66;;;19.30;31.14
66486;BME280;53303;47.476;8.084;2023-04-06T08:12:11;95422.72;;;19.34;31.20
66486;BME280;53303;47.476;8.084;2023-04-06T08:14:36;95416.41;;;19.28;31.27
66486;BME280;53303;47.476;8.084;2023-04-06T08:17:02;95415.19;;;19.24;31.30
66486;BME280;53303;47.476;8.084;2023-04-06T08:19:27;95422.97;;;19.31;31.25
66486;BME280;53303;47.476;8.084;2023-04-06T08:21:53;95428.25;;;19.29;31.10
66486;BME280;53303;47.476;8.084;2023-04-06T08:24:18;95437.06;;;19.33;31.31
66486;BME280;53303;47.476;8.084;2023-04-06T08:26:46;95430.50;;;19.30;31.14
66486;BME280;53303;47.476;8.084;2023-04-06T08:29:11;95420.72;;;19.29;31.29
66486;BME280;53303;47.476;8.084;2023-04-06T08:31:37;95432.53;;;19.35;31.21
66486;BME280;53303;47.476;8.084;2023-04-06T08:34:03;95428.25;;;19.34;31.21
66486;BME280;53303;47.476;8.084;2023-04-06T08:36:30;95441.59;;;19.36;31.29
66486;BME280;53303;47.476;8.084;2023-04-06T08:38:56;95432.03;;;19.31;31.37
66486;BME280;53303;47.476;8.084;2023-04-06T08:41:21;95426.75;;;19.28;31.32
66486;BME280;53303;47.476;8.084;2023-04-06T08:46:17;95433.53;;;19.32;31.30
66486;BME280;53303;47.476;8.084;2023-04-06T08:48:45;95439.06;;;19.38;31.36
66486;BME280;53303;47.476;8.084;2023-04-06T08:51:11;95442.34;;;19.36;30.99
66486;BME280;53303;47.476;8.084;2023-04-06T08:53:37;95441.06;;;19.37;31.49
66486;BME280;53303;47.476;8.084;2023-04-06T08:56:03;95441.34;;;19.39;31.04
66486;BME280;53303;47.476;8.084;2023-04-06T08:58:34;95447.63;;;19.40;31.25
66486;BME280;53303;47.476;8.084;2023-04-06T09:01:01;95441.34;;;19.39;31.31
66486;BME280;53303;47.476;8.084;2023-04-06T09:03:28;95436.06;;;19.36;31.31
66486;BME280;53303;47.476;8.084;2023-04-06T09:05:55;95440.06;;;19.40;31.33
66486;BME280;53303;47.476;8.084;2023-04-06T09:08:21;95440.06;;;19.40;31.31
66486;BME280;53303;47.476;8.084;2023-04-06T09:10:47;95437.31;;;19.40;31.31
66486;BME280;53303;47.476;8.084;2023-04-06T09:13:13;95430.00;;;19.37;31.49
66486;BME280;53303;47.476;8.084;2023-04-06T09:15:38;95430.53;;;19.36;31.31
66486;BME280;53303;47.476;8.084;2023-04-06T09:18:04;95436.81;;;19.42;31.34
66486;BME280;53303;47.476;8.084;2023-04-06T09:20:29;95436.06;;;19.42;31.30
66486;BME280;53303;47.476;8.084;2023-04-06T09:22:55;95440.31;;;19.43;31.49
66486;BME280;53303;47.476;8.084;2023-04-06T09:25:22;95438.81;;;19.42;31.21
66486;BME280;53303;47.476;8.084;2023-04-06T09:27:57;95439.06;;;19.44;31.27
66486;BME280;53303;47.476;8.084;2023-04-06T09:30:26;95432.78;;;19.37;31.41
66486;BME280;53303;47.476;8.084;2023-04-06T09:32:55;95439.56;;;19.42;31.20
66486;BME280;53303;47.476;8.084;2023-04-06T09:35:21;95443.34;;;19.45;31.22
66486;BME280;53303;47.476;8.084;2023-04-06T09:37:48;95441.34;;;19.45;31.29
66486;BME280;53303;47.476;8.084;2023-04-06T09:40:17;95447.63;;;19.46;31.20
66486;BME280;53303;47.476;8.084;2023-04-06T09:42:47;95434.53;;;19.46;31.39
66486;BME280;53303;47.476;8.084;2023-04-06T09:45:13;95438.56;;;19.45;31.26
66486;BME280;53303;47.476;8.084;2023-04-06T09:47:42;95435.31;;;19.47;31.46
66486;BME280;53303;47.476;8.084;2023-04-06T09:50:09;95431.28;;;19.48;31.26
66486;BME280;53303;47.476;8.084;2023-04-06T09:52:47;95431.03;;;19.46;31.20
66486;BME280;53303;47.476;8.084;2023-04-06T09:58:05;95429.25;;;19.43;31.69
66486;BME280;53303;47.476;8.084;2023-04-06T10:00:34;95436.56;;;19.46;31.42
66486;BME280;53303;47.476;8.084;2023-04-06T10:08:12;95416.94;;;19.44;31.53
66486;BME280;53303;47.476;8.084;2023-04-06T10:10:41;95432.78;;;19.49;31.24
66486;BME280;53303;47.476;8.084;2023-04-06T10:13:10;95420.19;;;19.48;31.53
66486;BME280;53303;47.476;8.084;2023-04-06T10:15:37;95432.53;;;19.52;31.49
66486;BME280;53303;47.476;8.084;2023-04-06T10:18:03;95429.03;;;19.52;31.56
66486;BME280;53303;47.476;8.084;2023-04-06T10:23:22;95430.53;;;19.53;31.49
66486;BME280;53303;47.476;8.084;2023-04-06T10:25:57;95421.47;;;19.52;31.55
66486;BME280;53303;47.476;8.084;2023-04-06T10:28:23;95411.16;;;19.47;31.51
66486;BME280;53303;47.476;8.084;2023-04-06T10:30:56;95420.94;;;19.48;31.57
66486;BME280;53303;47.476;8.084;2023-04-06T10:33:22;95420.72;;;19.52;31.52
66486;BME280;53303;47.476;8.084;2023-04-06T10:35:47;95417.44;;;19.53;31.51
66486;BME280;53303;47.476;8.084;2023-04-06T10:38:15;95421.22;;;19.56;31.48
66486;BME280;53303;47.476;8.084;2023-04-06T10:40:45;95406.88;;;19.52;31.67
66486;BME280;53303;47.476;8.084;2023-04-06T10:43:19;95425.47;;;19.57;31.83
66486;BME280;53303;47.476;8.084;2023-04-06T10:45:58;95419.94;;;19.57;31.40
66486;BME280;53303;47.476;8.084;2023-04-06T10:48:24;95411.88;;;19.53;31.57
66486;BME280;53303;47.476;8.084;2023-04-06T10:50:51;95416.44;;;19.56;31.63
66486;BME280;53303;47.476;8.084;2023-04-06T10:53:27;95424.97;;;19.58;31.50
66486;BME280;53303;47.476;8.084;2023-04-06T10:55:56;95424.97;;;19.58;31.49
66486;BME280;53303;47.476;8.084;2023-04-06T10:58:30;95421.72;;;19.60;31.58
66486;BME280;53303;47.476;8.084;2023-04-06T11:00:56;95407.13;;;19.54;31.57
66486;BME280;53303;47.476;8.084;2023-04-06T11:03:24;95412.91;;;19.62;31.61
66486;BME280;53303;47.476;8.084;2023-04-06T11:05:50;95416.41;;;19.62;31.47
66486;BME280;53303;47.476;8.084;2023-04-06T11:08:41;95405.34;;;19.56;31.63
66486;BME280;53303;47.476;8.084;2023-04-06T11:11:09;95403.34;;;19.57;31.29
66486;BME280;53303;47.476;8.084;2023-04-06T11:13:39;95406.13;;;19.63;31.39
66486;BME280;53303;47.476;8.084;2023-04-06T11:16:04;95397.78;;;19.57;31.59
66486;BME280;53303;47.476;8.084;2023-04-06T11:18:31;95401.31;;;19.63;31.50
66486;BME280;53303;47.476;8.084;2023-04-06T11:20:56;95395.81;;;19.57;31.57
66486;BME280;53303;47.476;8.084;2023-04-06T11:23:24;95403.59;;;19.65;31.60
66486;BME280;53303;47.476;8.084;2023-04-06T11:25:53;95395.03;;;19.63;31.48
66486;BME280;53303;47.476;8.084;2023-04-06T11:28:19;95386.72;;;19.57;31.46
66486;BME280;53303;47.476;8.084;2023-04-06T11:30:45;95382.22;;;19.59;31.55
66486;BME280;53303;47.476;8.084;2023-04-06T11:33:20;95390.50;;;19.65;31.62
66486;BME280;53303;47.476;8.084;2023-04-06T11:35:48;95385.22;;;19.62;31.46
66486;BME280;53303;47.476;8.084;2023-04-06T11:38:13;95385.22;;;19.62;31.47
66486;BME280;53303;47.476;8.084;2023-04-06T11:40:39;95383.69;;;19.60;31.83
66486;BME280;53303;47.476;8.084;2023-04-06T11:43:04;95381.97;;;19.63;31.64
66486;BME280;53303;47.476;8.084;2023-04-06T11:45:42;95376.16;;;19.67;31.57
66486;BME280;53303;47.476;8.084;2023-04-06T11:48:20;95379.69;;;19.67;31.36
66486;BME280;53303;47.476;8.084;2023-04-06T11:50:47;95381.19;;;19.68;31.50
66486;BME280;53303;47.476;8.084;2023-04-06T11:53:14;95365.34;;;19.63;31.50
66486;BME280;53303;47.476;8.084;2023-04-06T11:55:39;95366.56;;;19.68;31.58
66486;BME280;53303;47.476;8.084;2023-04-06T11:58:05;95376.66;;;19.71;31.66
66486;BME280;53303;47.476;8.084;2023-04-06T12:00:32;95366.84;;;19.70;31.44
66486;BME280;53303;47.476;8.084;2023-04-06T12:03:00;95367.84;;;19.72;31.64
66486;BME280;53303;47.476;8.084;2023-04-06T12:05:26;95364.31;;;19.72;31.50
66486;BME280;53303;47.476;8.084;2023-04-06T12:07:52;95372.16;;;19.73;31.72
66486;BME280;53303;47.476;8.084;2023-04-06T12:10:17;95368.84;;;19.69;31.56
66486;BME280;53303;47.476;8.084;2023-04-06T12:12:43;95365.34;;;19.74;31.66
66486;BME280;53303;47.476;8.084;2023-04-06T12:15:09;95373.16;;;19.76;31.42
66486;BME280;53303;47.476;8.084;2023-04-06T12:17:34;95358.00;;;19.71;31.49
66486;BME280;53303;47.476;8.084;2023-04-06T12:19:59;95368.34;;;19.76;31.58
66486;BME280;53303;47.476;8.084;2023-04-06T12:22:27;95360.78;;;19.71;31.48
66486;BME280;53303;47.476;8.084;2023-04-06T12:24:53;95354.75;;;19.73;31.60
66486;BME280;53303;47.476;8.084;2023-04-06T12:27:18;95351.50;;;19.74;31.51
66486;BME280;53303;47.476;8.084;2023-04-06T12:29:47;95360.28;;;19.78;31.58
66486;BME280;53303;47.476;8.084;2023-04-06T12:32:14;95358.00;;;19.71;31.60
66486;BME280;53303;47.476;8.084;2023-04-06T12:34:42;95354.00;;;19.78;31.70
66486;BME280;53303;47.476;8.084;2023-04-06T12:37:08;95354.75;;;19.78;31.65
66486;BME280;53303;47.476;8.084;2023-04-06T12:39:33;95356.28;;;19.80;31.64
66486;BME280;53303;47.476;8.084;2023-04-06T12:42:01;95344.72;;;19.75;31.49
66486;BME280;53303;47.476;8.084;2023-04-06T12:44:27;95352.25;;;19.81;31.51
66486;BME280;53303;47.476;8.084;2023-04-06T12:46:53;95353.75;;;19.82;31.69
66486;BME280;53303;47.476;8.084;2023-04-06T12:49:18;95358.53;;;19.81;31.48
66486;BME280;53303;47.476;8.084;2023-04-06T12:51:45;95353.50;;;19.80;31.63
66486;BME280;53303;47.476;8.084;2023-04-06T12:54:10;95349.50;;;19.81;31.65
66486;BME280;53303;47.476;8.084;2023-04-06T12:56:37;95334.88;;;19.74;31.65
66486;BME280;53303;47.476;8.084;2023-04-06T12:59:02;95350.75;;;19.80;31.57
66486;BME280;53303;47.476;8.084;2023-04-06T13:01:28;95357.28;;;19.82;31.64
66486;BME280;53303;47.476;8.084;2023-04-06T13:03:53;95352.25;;;19.81;31.59
66486;BME280;53303;47.476;8.084;2023-04-06T13:06:19;95352.50;;;19.83;31.66
66486;BME280;53303;47.476;8.084;2023-04-06T13:08:47;95349.72;;;19.83;31.71
66486;BME280;53303;47.476;8.084;2023-04-06T13:11:15;95322.81;;;19.66;31.78